Hawthorn, Pennsylvania
Current Conditions -  °F | °C
As of 4:53 PM on Monday 20 Oct 2014 (Local Time) from KDUJ Reporting Station
Overcast Overcast  
Wind Chill: 53°   Ceiling: 8000
Heat Index: 53°   Visibility: 10mi
Dew Point: 40°   Wind: 8mph
Humidity: 61%   Direction: 210°SSW
Pressure: 29.88"   Gusts: NA
Location:  41.02°N, 79.27°W
Report Text: KDUJ 202053Z AUTO 21007KT 10SM BKN080 OVC110 12/04 A2988 RMK AO2 SLP121 T01170044 56007
Loading
Personal Weather Stations






























Interactive Weather Map
Tropical Storm Tracking
New forecast layout! Learn more

10-Day Weather Forecast

Advertisements
Track Severe Weather on mobile